sensor_id;sensor_type;location;lat;lon;timestamp;P1;durP1;ratioP1;P2;durP2;ratioP2
11123;SDS011;5616;42.692;23.312;2022-08-02T00:02:06;1.70;;;1.60;;
11123;SDS011;5616;42.692;23.312;2022-08-02T00:04:33;1.67;;;1.57;;
11123;SDS011;5616;42.692;23.312;2022-08-02T00:07:00;2.53;;;1.70;;
11123;SDS011;5616;42.692;23.312;2022-08-02T00:09:27;1.92;;;1.58;;
11123;SDS011;5616;42.692;23.312;2022-08-02T00:11:55;3.37;;;2.03;;
11123;SDS011;5616;42.692;23.312;2022-08-02T00:14:22;5.63;;;1.60;;
11123;SDS011;5616;42.692;23.312;2022-08-02T00:16:49;3.90;;;1.60;;
11123;SDS011;5616;42.692;23.312;2022-08-02T00:19:16;4.70;;;1.40;;
11123;SDS011;5616;42.692;23.312;2022-08-02T00:21:43;1.80;;;1.60;;
11123;SDS011;5616;42.692;23.312;2022-08-02T00:24:10;2.27;;;1.70;;
11123;SDS011;5616;42.692;23.312;2022-08-02T00:26:37;1.80;;;1.60;;
11123;SDS011;5616;42.692;23.312;2022-08-02T00:29:05;2.57;;;1.80;;
11123;SDS011;5616;42.692;23.312;2022-08-02T00:31:32;2.07;;;1.90;;
11123;SDS011;5616;42.692;23.312;2022-08-02T00:33:59;1.70;;;1.60;;
11123;SDS011;5616;42.692;23.312;2022-08-02T00:36:26;1.73;;;1.63;;
11123;SDS011;5616;42.692;23.312;2022-08-02T00:38:53;1.97;;;1.60;;
11123;SDS011;5616;42.692;23.312;2022-08-02T00:41:21;2.77;;;1.90;;
11123;SDS011;5616;42.692;23.312;2022-08-02T00:43:49;1.77;;;1.50;;
11123;SDS011;5616;42.692;23.312;2022-08-02T00:46:18;2.10;;;1.50;;
11123;SDS011;5616;42.692;23.312;2022-08-02T00:48:46;3.23;;;1.60;;
11123;SDS011;5616;42.692;23.312;2022-08-02T00:51:13;1.80;;;1.70;;
11123;SDS011;5616;42.692;23.312;2022-08-02T00:53:41;1.93;;;1.50;;
11123;SDS011;5616;42.692;23.312;2022-08-02T00:56:08;2.80;;;2.00;;
11123;SDS011;5616;42.692;23.312;2022-08-02T00:58:36;2.10;;;1.83;;
11123;SDS011;5616;42.692;23.312;2022-08-02T01:01:03;4.40;;;1.83;;
11123;SDS011;5616;42.692;23.312;2022-08-02T01:03:31;2.67;;;2.10;;
11123;SDS011;5616;42.692;23.312;2022-08-02T01:05:58;3.13;;;1.90;;
11123;SDS011;5616;42.692;23.312;2022-08-02T01:08:25;2.40;;;2.10;;
11123;SDS011;5616;42.692;23.312;2022-08-02T01:10:52;2.30;;;2.10;;
11123;SDS011;5616;42.692;23.312;2022-08-02T01:13:19;4.77;;;2.67;;
11123;SDS011;5616;42.692;23.312;2022-08-02T01:15:49;5.03;;;2.33;;
11123;SDS011;5616;42.692;23.312;2022-08-02T01:18:22;2.40;;;2.20;;
11123;SDS011;5616;42.692;23.312;2022-08-02T01:26:47;2.80;;;1.90;;
11123;SDS011;5616;42.692;23.312;2022-08-02T01:29:20;2.60;;;2.40;;
11123;SDS011;5616;42.692;23.312;2022-08-02T01:31:53;2.77;;;2.40;;
11123;SDS011;5616;42.692;23.312;2022-08-02T01:34:23;8.97;;;2.30;;
11123;SDS011;5616;42.692;23.312;2022-08-02T01:36:57;3.23;;;2.80;;
11123;SDS011;5616;42.692;23.312;2022-08-02T01:39:27;2.30;;;2.10;;
11123;SDS011;5616;42.692;23.312;2022-08-02T01:41:59;3.70;;;2.40;;
11123;SDS011;5616;42.692;23.312;2022-08-02T01:44:31;2.43;;;2.23;;
11123;SDS011;5616;42.692;23.312;2022-08-02T01:47:02;2.90;;;2.40;;
11123;SDS011;5616;42.692;23.312;2022-08-02T01:49:33;3.70;;;2.40;;
11123;SDS011;5616;42.692;23.312;2022-08-02T01:52:03;2.30;;;2.10;;
11123;SDS011;5616;42.692;23.312;2022-08-02T01:54:48;2.33;;;2.13;;
11123;SDS011;5616;42.692;23.312;2022-08-02T01:57:17;2.40;;;2.20;;
11123;SDS011;5616;42.692;23.312;2022-08-02T01:59:48;2.77;;;2.50;;
11123;SDS011;5616;42.692;23.312;2022-08-02T02:02:16;4.13;;;2.60;;
11123;SDS011;5616;42.692;23.312;2022-08-02T02:04:46;2.33;;;2.13;;
11123;SDS011;5616;42.692;23.312;2022-08-02T02:07:15;2.60;;;2.40;;
11123;SDS011;5616;42.692;23.312;2022-08-02T02:09:44;5.63;;;2.27;;
11123;SDS011;5616;42.692;23.312;2022-08-02T02:12:12;2.30;;;2.10;;
11123;SDS011;5616;42.692;23.312;2022-08-02T02:14:40;2.83;;;2.20;;
11123;SDS011;5616;42.692;23.312;2022-08-02T02:17:10;3.20;;;2.40;;
11123;SDS011;5616;42.692;23.312;2022-08-02T02:19:39;2.70;;;2.50;;
11123;SDS011;5616;42.692;23.312;2022-08-02T02:22:07;2.53;;;2.30;;
11123;SDS011;5616;42.692;23.312;2022-08-02T02:24:34;3.37;;;2.30;;
11123;SDS011;5616;42.692;23.312;2022-08-02T02:27:01;2.63;;;2.17;;
11123;SDS011;5616;42.692;23.312;2022-08-02T02:29:30;4.13;;;2.40;;
11123;SDS011;5616;42.692;23.312;2022-08-02T02:31:59;3.83;;;2.43;;
11123;SDS011;5616;42.692;23.312;2022-08-02T02:34:29;2.87;;;2.50;;
11123;SDS011;5616;42.692;23.312;2022-08-02T02:37:00;2.90;;;2.50;;
11123;SDS011;5616;42.692;23.312;2022-08-02T02:39:30;5.10;;;2.80;;
11123;SDS011;5616;42.692;23.312;2022-08-02T02:42:00;5.32;;;2.40;;
11123;SDS011;5616;42.692;23.312;2022-08-02T02:44:29;3.00;;;2.30;;
11123;SDS011;5616;42.692;23.312;2022-08-02T02:46:57;2.97;;;2.50;;
11123;SDS011;5616;42.692;23.312;2022-08-02T02:49:26;3.80;;;2.30;;
11123;SDS011;5616;42.692;23.312;2022-08-02T02:51:56;5.47;;;2.53;;
11123;SDS011;5616;42.692;23.312;2022-08-02T02:54:24;2.50;;;2.30;;
11123;SDS011;5616;42.692;23.312;2022-08-02T02:56:52;3.43;;;2.50;;
11123;SDS011;5616;42.692;23.312;2022-08-02T02:59:20;3.50;;;2.53;;
11123;SDS011;5616;42.692;23.312;2022-08-02T03:01:47;4.47;;;2.30;;
11123;SDS011;5616;42.692;23.312;2022-08-02T03:04:15;4.07;;;2.33;;
11123;SDS011;5616;42.692;23.312;2022-08-02T03:06:44;3.53;;;2.40;;
11123;SDS011;5616;42.692;23.312;2022-08-02T03:09:12;4.13;;;2.50;;
11123;SDS011;5616;42.692;23.312;2022-08-02T03:11:39;4.10;;;2.27;;
11123;SDS011;5616;42.692;23.312;2022-08-02T03:14:08;5.57;;;2.50;;
11123;SDS011;5616;42.692;23.312;2022-08-02T03:16:43;2.90;;;2.57;;
11123;SDS011;5616;42.692;23.312;2022-08-02T03:19:12;4.07;;;2.47;;
11123;SDS011;5616;42.692;23.312;2022-08-02T03:21:40;4.45;;;2.45;;
11123;SDS011;5616;42.692;23.312;2022-08-02T03:24:09;5.90;;;2.90;;
11123;SDS011;5616;42.692;23.312;2022-08-02T03:26:37;4.67;;;2.70;;
11123;SDS011;5616;42.692;23.312;2022-08-02T03:29:04;4.27;;;2.60;;
11123;SDS011;5616;42.692;23.312;2022-08-02T03:31:31;3.63;;;2.60;;
11123;SDS011;5616;42.692;23.312;2022-08-02T03:33:58;4.57;;;2.90;;
11123;SDS011;5616;42.692;23.312;2022-08-02T03:36:27;3.00;;;2.33;;
11123;SDS011;5616;42.692;23.312;2022-08-02T03:38:56;5.10;;;3.27;;
11123;SDS011;5616;42.692;23.312;2022-08-02T03:41:25;4.27;;;2.70;;
11123;SDS011;5616;42.692;23.312;2022-08-02T03:43:53;3.33;;;2.80;;
11123;SDS011;5616;42.692;23.312;2022-08-02T03:46:22;4.30;;;2.27;;
11123;SDS011;5616;42.692;23.312;2022-08-02T03:48:50;5.83;;;3.03;;
11123;SDS011;5616;42.692;23.312;2022-08-02T03:51:18;4.20;;;3.03;;
11123;SDS011;5616;42.692;23.312;2022-08-02T03:53:46;4.57;;;3.27;;
11123;SDS011;5616;42.692;23.312;2022-08-02T03:56:13;7.50;;;3.03;;
11123;SDS011;5616;42.692;23.312;2022-08-02T03:58:42;7.40;;;2.83;;
11123;SDS011;5616;42.692;23.312;2022-08-02T04:01:09;10.20;;;2.80;;
11123;SDS011;5616;42.692;23.312;2022-08-02T04:03:36;7.40;;;2.90;;
11123;SDS011;5616;42.692;23.312;2022-08-02T04:06:03;7.03;;;3.40;;
11123;SDS011;5616;42.692;23.312;2022-08-02T04:08:31;6.80;;;3.23;;
11123;SDS011;5616;42.692;23.312;2022-08-02T04:10:58;6.10;;;3.20;;
11123;SDS011;5616;42.692;23.312;2022-08-02T04:13:43;6.60;;;3.00;;
11123;SDS011;5616;42.692;23.312;2022-08-02T04:16:11;7.00;;;3.27;;
11123;SDS011;5616;42.692;23.312;2022-08-02T04:18:42;5.63;;;3.27;;
11123;SDS011;5616;42.692;23.312;2022-08-02T04:21:16;6.57;;;3.10;;
11123;SDS011;5616;42.692;23.312;2022-08-02T04:23:46;5.80;;;3.33;;
11123;SDS011;5616;42.692;23.312;2022-08-02T04:26:15;4.50;;;3.30;;
11123;SDS011;5616;42.692;23.312;2022-08-02T04:28:45;5.93;;;3.40;;
11123;SDS011;5616;42.692;23.312;2022-08-02T04:31:13;6.40;;;3.63;;
11123;SDS011;5616;42.692;23.312;2022-08-02T04:33:42;3.53;;;3.20;;
11123;SDS011;5616;42.692;23.312;2022-08-02T04:36:10;7.10;;;3.63;;
11123;SDS011;5616;42.692;23.312;2022-08-02T04:38:39;5.63;;;3.67;;
11123;SDS011;5616;42.692;23.312;2022-08-02T04:41:06;4.80;;;3.60;;
11123;SDS011;5616;42.692;23.312;2022-08-02T04:43:33;8.63;;;3.30;;
11123;SDS011;5616;42.692;23.312;2022-08-02T04:46:02;9.10;;;3.60;;
11123;SDS011;5616;42.692;23.312;2022-08-02T04:48:29;6.77;;;3.43;;
11123;SDS011;5616;42.692;23.312;2022-08-02T04:50:56;7.33;;;3.70;;
11123;SDS011;5616;42.692;23.312;2022-08-02T04:53:23;6.57;;;3.43;;
11123;SDS011;5616;42.692;23.312;2022-08-02T04:55:50;6.07;;;3.67;;
11123;SDS011;5616;42.692;23.312;2022-08-02T04:58:17;6.40;;;3.90;;
11123;SDS011;5616;42.692;23.312;2022-08-02T05:00:44;9.50;;;3.90;;
11123;SDS011;5616;42.692;23.312;2022-08-02T05:03:12;6.13;;;3.63;;
11123;SDS011;5616;42.692;23.312;2022-08-02T05:05:39;8.97;;;4.03;;
11123;SDS011;5616;42.692;23.312;2022-08-02T05:08:06;10.17;;;4.67;;
11123;SDS011;5616;42.692;23.312;2022-08-02T05:10:33;6.50;;;3.87;;
11123;SDS011;5616;42.692;23.312;2022-08-02T05:13:02;5.90;;;3.90;;
11123;SDS011;5616;42.692;23.312;2022-08-02T05:15:29;5.30;;;3.90;;
11123;SDS011;5616;42.692;23.312;2022-08-02T05:17:56;7.03;;;4.07;;
11123;SDS011;5616;42.692;23.312;2022-08-02T05:20:25;7.17;;;3.90;;
11123;SDS011;5616;42.692;23.312;2022-08-02T05:22:52;7.57;;;3.60;;
11123;SDS011;5616;42.692;23.312;2022-08-02T05:25:18;8.40;;;3.97;;
11123;SDS011;5616;42.692;23.312;2022-08-02T05:27:45;8.03;;;3.90;;
11123;SDS011;5616;42.692;23.312;2022-08-02T05:30:12;6.80;;;3.97;;
11123;SDS011;5616;42.692;23.312;2022-08-02T05:32:43;8.13;;;3.90;;
11123;SDS011;5616;42.692;23.312;2022-08-02T05:35:11;10.07;;;3.40;;
11123;SDS011;5616;42.692;23.312;2022-08-02T05:37:39;9.23;;;4.37;;
11123;SDS011;5616;42.692;23.312;2022-08-02T05:40:06;11.20;;;3.67;;
11123;SDS011;5616;42.692;23.312;2022-08-02T05:42:34;6.00;;;4.20;;
11123;SDS011;5616;42.692;23.312;2022-08-02T05:45:02;9.33;;;3.90;;
11123;SDS011;5616;42.692;23.312;2022-08-02T05:47:29;7.37;;;3.83;;
11123;SDS011;5616;42.692;23.312;2022-08-02T05:49:56;9.63;;;4.10;;
11123;SDS011;5616;42.692;23.312;2022-08-02T05:52:24;6.97;;;3.97;;
11123;SDS011;5616;42.692;23.312;2022-08-02T05:55:03;6.37;;;3.63;;
11123;SDS011;5616;42.692;23.312;2022-08-02T05:57:36;4.60;;;3.33;;
11123;SDS011;5616;42.692;23.312;2022-08-02T06:00:08;8.33;;;3.60;;
11123;SDS011;5616;42.692;23.312;2022-08-02T06:02:54;6.17;;;3.23;;
11123;SDS011;5616;42.692;23.312;2022-08-02T06:05:48;4.43;;;3.10;;
11123;SDS011;5616;42.692;23.312;2022-08-02T06:08:19;3.10;;;2.80;;
11123;SDS011;5616;42.692;23.312;2022-08-02T06:10:48;5.30;;;2.90;;
11123;SDS011;5616;42.692;23.312;2022-08-02T06:13:21;3.57;;;2.30;;
11123;SDS011;5616;42.692;23.312;2022-08-02T06:15:50;3.63;;;2.57;;
11123;SDS011;5616;42.692;23.312;2022-08-02T06:18:20;3.03;;;2.27;;
11123;SDS011;5616;42.692;23.312;2022-08-02T06:20:47;3.47;;;2.20;;
11123;SDS011;5616;42.692;23.312;2022-08-02T06:23:15;3.23;;;2.23;;
11123;SDS011;5616;42.692;23.312;2022-08-02T06:25:48;2.53;;;2.03;;
11123;SDS011;5616;42.692;23.312;2022-08-02T06:28:16;2.37;;;1.90;;
11123;SDS011;5616;42.692;23.312;2022-08-02T06:30:44;2.57;;;2.07;;
11123;SDS011;5616;42.692;23.312;2022-08-02T06:33:12;2.60;;;1.60;;
11123;SDS011;5616;42.692;23.312;2022-08-02T06:35:45;3.97;;;2.15;;
11123;SDS011;5616;42.692;23.312;2022-08-02T06:38:22;3.83;;;1.77;;
11123;SDS011;5616;42.692;23.312;2022-08-02T06:40:54;3.08;;;1.90;;
11123;SDS011;5616;42.692;23.312;2022-08-02T06:43:27;1.85;;;1.50;;
11123;SDS011;5616;42.692;23.312;2022-08-02T06:46:00;2.97;;;2.40;;
11123;SDS011;5616;42.692;23.312;2022-08-02T06:48:28;3.15;;;2.42;;
11123;SDS011;5616;42.692;23.312;2022-08-02T06:50:55;3.17;;;1.98;;
11123;SDS011;5616;42.692;23.312;2022-08-02T06:53:22;4.82;;;2.00;;
11123;SDS011;5616;42.692;23.312;2022-08-02T06:55:49;2.55;;;2.00;;
11123;SDS011;5616;42.692;23.312;2022-08-02T06:58:17;2.35;;;1.80;;
11123;SDS011;5616;42.692;23.312;2022-08-02T07:00:44;2.53;;;2.30;;
11123;SDS011;5616;42.692;23.312;2022-08-02T07:03:13;3.25;;;1.98;;
11123;SDS011;5616;42.692;23.312;2022-08-02T07:05:41;2.30;;;1.95;;
11123;SDS011;5616;42.692;23.312;2022-08-02T07:08:12;2.63;;;1.88;;
11123;SDS011;5616;42.692;23.312;2022-08-02T07:10:39;6.38;;;2.05;;
11123;SDS011;5616;42.692;23.312;2022-08-02T07:13:06;4.95;;;1.77;;
11123;SDS011;5616;42.692;23.312;2022-08-02T07:15:35;5.20;;;1.80;;
11123;SDS011;5616;42.692;23.312;2022-08-02T07:18:02;1.63;;;1.50;;
11123;SDS011;5616;42.692;23.312;2022-08-02T07:20:29;3.90;;;1.52;;
11123;SDS011;5616;42.692;23.312;2022-08-02T07:22:57;4.93;;;1.70;;
11123;SDS011;5616;42.692;23.312;2022-08-02T07:25:24;1.75;;;1.60;;
11123;SDS011;5616;42.692;23.312;2022-08-02T07:27:51;4.60;;;1.50;;
11123;SDS011;5616;42.692;23.312;2022-08-02T07:30:17;1.50;;;1.40;;
11123;SDS011;5616;42.692;23.312;2022-08-02T07:32:46;2.65;;;1.75;;
11123;SDS011;5616;42.692;23.312;2022-08-02T07:35:13;2.33;;;1.70;;
11123;SDS011;5616;42.692;23.312;2022-08-02T07:37:40;1.67;;;1.48;;
11123;SDS011;5616;42.692;23.312;2022-08-02T07:40:10;2.35;;;2.03;;
11123;SDS011;5616;42.692;23.312;2022-08-02T07:42:38;3.25;;;1.92;;
11123;SDS011;5616;42.692;23.312;2022-08-02T07:45:05;2.30;;;1.98;;
11123;SDS011;5616;42.692;23.312;2022-08-02T07:47:34;2.15;;;1.67;;
11123;SDS011;5616;42.692;23.312;2022-08-02T07:50:04;2.80;;;1.35;;
11123;SDS011;5616;42.692;23.312;2022-08-02T07:52:32;5.82;;;2.40;;
11123;SDS011;5616;42.692;23.312;2022-08-02T07:54:59;2.85;;;1.90;;
11123;SDS011;5616;42.692;23.312;2022-08-02T07:57:26;2.75;;;1.80;;
11123;SDS011;5616;42.692;23.312;2022-08-02T07:59:53;3.63;;;1.90;;
11123;SDS011;5616;42.692;23.312;2022-08-02T08:02:20;1.58;;;1.48;;
11123;SDS011;5616;42.692;23.312;2022-08-02T08:04:48;3.55;;;1.40;;
11123;SDS011;5616;42.692;23.312;2022-08-02T08:07:17;1.88;;;1.10;;
11123;SDS011;5616;42.692;23.312;2022-08-02T08:09:44;2.95;;;1.10;;
11123;SDS011;5616;42.692;23.312;2022-08-02T08:12:12;1.65;;;1.17;;
11123;SDS011;5616;42.692;23.312;2022-08-02T08:14:40;11.85;;;5.68;;
11123;SDS011;5616;42.692;23.312;2022-08-02T08:17:07;8.98;;;3.90;;
11123;SDS011;5616;42.692;23.312;2022-08-02T08:19:34;12.73;;;7.13;;
11123;SDS011;5616;42.692;23.312;2022-08-02T08:22:01;6.63;;;2.83;;
11123;SDS011;5616;42.692;23.312;2022-08-02T08:24:29;2.33;;;1.48;;
11123;SDS011;5616;42.692;23.312;2022-08-02T08:26:56;2.58;;;1.17;;
11123;SDS011;5616;42.692;23.312;2022-08-02T08:29:23;1.88;;;1.20;;
11123;SDS011;5616;42.692;23.312;2022-08-02T08:31:50;1.48;;;1.20;;
11123;SDS011;5616;42.692;23.312;2022-08-02T08:34:17;2.25;;;1.33;;
11123;SDS011;5616;42.692;23.312;2022-08-02T08:36:44;2.30;;;1.20;;
11123;SDS011;5616;42.692;23.312;2022-08-02T08:39:11;1.95;;;1.48;;
11123;SDS011;5616;42.692;23.312;2022-08-02T08:41:40;2.85;;;1.13;;
11123;SDS011;5616;42.692;23.312;2022-08-02T08:44:07;1.70;;;1.38;;
11123;SDS011;5616;42.692;23.312;2022-08-02T08:46:36;1.30;;;1.00;;
11123;SDS011;5616;42.692;23.312;2022-08-02T08:49:05;1.75;;;1.00;;
11123;SDS011;5616;42.692;23.312;2022-08-02T08:51:36;1.27;;;1.17;;
11123;SDS011;5616;42.692;23.312;2022-08-02T08:54:06;1.98;;;1.10;;
11123;SDS011;5616;42.692;23.312;2022-08-02T08:56:35;1.92;;;1.05;;
11123;SDS011;5616;42.692;23.312;2022-08-02T08:59:03;2.15;;;1.38;;
11123;SDS011;5616;42.692;23.312;2022-08-02T09:01:30;2.30;;;1.50;;
11123;SDS011;5616;42.692;23.312;2022-08-02T09:03:58;1.75;;;1.30;;
11123;SDS011;5616;42.692;23.312;2022-08-02T09:06:24;1.35;;;1.13;;
11123;SDS011;5616;42.692;23.312;2022-08-02T09:08:52;1.27;;;1.17;;
11123;SDS011;5616;42.692;23.312;2022-08-02T09:11:22;2.97;;;1.23;;
11123;SDS011;5616;42.692;23.312;2022-08-02T09:13:51;1.98;;;1.30;;
11123;SDS011;5616;42.692;23.312;2022-08-02T09:16:30;1.98;;;1.20;;
11123;SDS011;5616;42.692;23.312;2022-08-02T09:19:00;1.80;;;1.05;;
11123;SDS011;5616;42.692;23.312;2022-08-02T09:21:41;1.10;;;1.00;;
11123;SDS011;5616;42.692;23.312;2022-08-02T09:24:14;2.97;;;1.10;;
11123;SDS011;5616;42.692;23.312;2022-08-02T09:26:43;3.20;;;1.20;;
11123;SDS011;5616;42.692;23.312;2022-08-02T09:29:10;3.03;;;1.50;;
11123;SDS011;5616;42.692;23.312;2022-08-02T09:31:38;1.30;;;1.20;;
11123;SDS011;5616;42.692;23.312;2022-08-02T09:34:05;2.92;;;1.00;;
11123;SDS011;5616;42.692;23.312;2022-08-02T09:36:36;2.63;;;1.25;;
11123;SDS011;5616;42.692;23.312;2022-08-02T09:39:05;2.33;;;1.40;;
11123;SDS011;5616;42.692;23.312;2022-08-02T09:41:33;2.72;;;1.55;;
11123;SDS011;5616;42.692;23.312;2022-08-02T09:44:02;1.45;;;1.20;;
11123;SDS011;5616;42.692;23.312;2022-08-02T09:46:32;1.45;;;1.10;;
11123;SDS011;5616;42.692;23.312;2022-08-02T09:49:06;1.17;;;1.08;;
11123;SDS011;5616;42.692;23.312;2022-08-02T09:51:34;3.85;;;1.40;;
11123;SDS011;5616;42.692;23.312;2022-08-02T09:54:03;1.55;;;1.38;;
11123;SDS011;5616;42.692;23.312;2022-08-02T09:56:42;1.30;;;1.20;;
11123;SDS011;5616;42.692;23.312;2022-08-02T09:59:10;1.40;;;1.30;;
11123;SDS011;5616;42.692;23.312;2022-08-02T10:01:38;2.30;;;1.30;;
11123;SDS011;5616;42.692;23.312;2022-08-02T10:04:08;11.70;;;6.30;;
11123;SDS011;5616;42.692;23.312;2022-08-02T10:06:36;2.80;;;2.05;;
11123;SDS011;5616;42.692;23.312;2022-08-02T10:09:03;2.08;;;1.85;;
11123;SDS011;5616;42.692;23.312;2022-08-02T10:11:31;3.42;;;2.80;;
11123;SDS011;5616;42.692;23.312;2022-08-02T10:13:59;2.00;;;1.80;;
11123;SDS011;5616;42.692;23.312;2022-08-02T10:16:29;2.47;;;1.70;;
11123;SDS011;5616;42.692;23.312;2022-08-02T10:18:58;1.52;;;1.27;;
11123;SDS011;5616;42.692;23.312;2022-08-02T10:21:32;8.52;;;4.47;;
11123;SDS011;5616;42.692;23.312;2022-08-02T10:24:06;3.30;;;2.42;;
11123;SDS011;5616;42.692;23.312;2022-08-02T10:26:35;4.18;;;2.17;;
11123;SDS011;5616;42.692;23.312;2022-08-02T10:29:04;1.80;;;1.30;;
11123;SDS011;5616;42.692;23.312;2022-08-02T10:31:35;3.72;;;1.58;;
11123;SDS011;5616;42.692;23.312;2022-08-02T10:34:07;2.35;;;1.42;;
11123;SDS011;5616;42.692;23.312;2022-08-02T10:36:39;2.72;;;1.30;;
11123;SDS011;5616;42.692;23.312;2022-08-02T10:39:07;1.42;;;1.33;;
11123;SDS011;5616;42.692;23.312;2022-08-02T10:41:45;1.52;;;1.20;;
11123;SDS011;5616;42.692;23.312;2022-08-02T10:44:20;1.73;;;1.30;;
11123;SDS011;5616;42.692;23.312;2022-08-02T10:46:48;1.40;;;1.30;;
11123;SDS011;5616;42.692;23.312;2022-08-02T10:49:15;2.28;;;1.15;;
11123;SDS011;5616;42.692;23.312;2022-08-02T10:51:58;3.13;;;1.23;;
11123;SDS011;5616;42.692;23.312;2022-08-02T10:54:32;2.25;;;0.93;;
11123;SDS011;5616;42.692;23.312;2022-08-02T10:57:01;1.50;;;1.40;;
11123;SDS011;5616;42.692;23.312;2022-08-02T10:59:39;1.50;;;1.40;;
11123;SDS011;5616;42.692;23.312;2022-08-02T11:02:06;1.50;;;1.25;;
11123;SDS011;5616;42.692;23.312;2022-08-02T11:07:32;2.35;;;1.98;;
11123;SDS011;5616;42.692;23.312;2022-08-02T11:13:02;1.98;;;1.65;;
11123;SDS011;5616;42.692;23.312;2022-08-02T11:21:28;1.00;;;1.00;;
11123;SDS011;5616;42.692;23.312;2022-08-02T11:24:22;2.38;;;1.50;;
11123;SDS011;5616;42.692;23.312;2022-08-02T11:26:56;1.40;;;1.27;;
11123;SDS011;5616;42.692;23.312;2022-08-02T11:29:31;1.63;;;1.10;;
11123;SDS011;5616;42.692;23.312;2022-08-02T11:32:02;3.60;;;1.10;;
11123;SDS011;5616;42.692;23.312;2022-08-02T11:34:30;0.98;;;0.98;;
11123;SDS011;5616;42.692;23.312;2022-08-02T11:36:58;3.03;;;1.02;;
11123;SDS011;5616;42.692;23.312;2022-08-02T11:39:27;1.17;;;1.00;;
11123;SDS011;5616;42.692;23.312;2022-08-02T11:41:54;0.80;;;0.80;;
11123;SDS011;5616;42.692;23.312;2022-08-02T11:44:22;2.45;;;1.10;;
11123;SDS011;5616;42.692;23.312;2022-08-02T11:46:53;1.00;;;0.88;;
11123;SDS011;5616;42.692;23.312;2022-08-02T11:49:21;0.98;;;0.88;;
11123;SDS011;5616;42.692;23.312;2022-08-02T11:51:54;1.25;;;0.90;;
11123;SDS011;5616;42.692;23.312;2022-08-02T11:54:27;2.70;;;1.10;;
11123;SDS011;5616;42.692;23.312;2022-08-02T11:57:09;1.13;;;1.02;;
11123;SDS011;5616;42.692;23.312;2022-08-02T11:59:37;1.25;;;0.90;;
11123;SDS011;5616;42.692;23.312;2022-08-02T12:02:04;0.80;;;0.80;;
11123;SDS011;5616;42.692;23.312;2022-08-02T12:04:32;1.40;;;1.23;;
11123;SDS011;5616;42.692;23.312;2022-08-02T12:07:00;12.35;;;5.57;;
11123;SDS011;5616;42.692;23.312;2022-08-02T12:09:30;5.80;;;1.52;;
11123;SDS011;5616;42.692;23.312;2022-08-02T12:11:59;1.80;;;1.25;;
11123;SDS011;5616;42.692;23.312;2022-08-02T12:14:28;1.98;;;1.48;;
11123;SDS011;5616;42.692;23.312;2022-08-02T12:16:57;1.30;;;1.10;;
11123;SDS011;5616;42.692;23.312;2022-08-02T12:19:42;1.50;;;1.30;;
11123;SDS011;5616;42.692;23.312;2022-08-02T12:22:10;3.20;;;1.20;;
11123;SDS011;5616;42.692;23.312;2022-08-02T12:24:42;4.70;;;1.60;;
11123;SDS011;5616;42.692;23.312;2022-08-02T12:27:25;1.75;;;1.05;;
11123;SDS011;5616;42.692;23.312;2022-08-02T12:29:57;2.08;;;0.80;;
11123;SDS011;5616;42.692;23.312;2022-08-02T12:32:25;0.88;;;0.77;;
11123;SDS011;5616;42.692;23.312;2022-08-02T12:35:03;1.70;;;0.90;;
11123;SDS011;5616;42.692;23.312;2022-08-02T12:37:33;0.88;;;0.88;;
11123;SDS011;5616;42.692;23.312;2022-08-02T12:42:48;1.77;;;1.33;;
11123;SDS011;5616;42.692;23.312;2022-08-02T12:45:16;3.92;;;1.52;;
11123;SDS011;5616;42.692;23.312;2022-08-02T12:47:44;1.10;;;0.98;;
11123;SDS011;5616;42.692;23.312;2022-08-02T12:50:13;1.00;;;1.00;;
11123;SDS011;5616;42.692;23.312;2022-08-02T12:52:42;1.10;;;1.00;;
11123;SDS011;5616;42.692;23.312;2022-08-02T12:55:20;0.88;;;0.77;;
11123;SDS011;5616;42.692;23.312;2022-08-02T12:57:50;1.20;;;1.10;;
11123;SDS011;5616;42.692;23.312;2022-08-02T13:00:22;1.08;;;0.98;;
11123;SDS011;5616;42.692;23.312;2022-08-02T13:02:51;0.90;;;0.90;;
11123;SDS011;5616;42.692;23.312;2022-08-02T13:05:18;0.82;;;0.82;;
11123;SDS011;5616;42.692;23.312;2022-08-02T13:07:45;0.80;;;0.80;;
11123;SDS011;5616;42.692;23.312;2022-08-02T13:10:12;2.65;;;0.90;;
11123;SDS011;5616;42.692;23.312;2022-08-02T13:12:40;2.03;;;1.02;;
11123;SDS011;5616;42.692;23.312;2022-08-02T13:15:08;1.20;;;1.10;;
11123;SDS011;5616;42.692;23.312;2022-08-02T13:17:35;0.90;;;0.90;;
11123;SDS011;5616;42.692;23.312;2022-08-02T13:20:03;1.10;;;1.00;;
11123;SDS011;5616;42.692;23.312;2022-08-02T13:22:31;1.75;;;1.10;;
11123;SDS011;5616;42.692;23.312;2022-08-02T13:24:58;0.80;;;0.80;;
11123;SDS011;5616;42.692;23.312;2022-08-02T13:27:25;2.25;;;1.08;;
11123;SDS011;5616;42.692;23.312;2022-08-02T13:29:55;1.02;;;0.90;;
11123;SDS011;5616;42.692;23.312;2022-08-02T13:32:22;1.27;;;1.17;;
11123;SDS011;5616;42.692;23.312;2022-08-02T13:34:50;0.90;;;0.90;;
11123;SDS011;5616;42.692;23.312;2022-08-02T13:37:17;0.90;;;0.80;;
11123;SDS011;5616;42.692;23.312;2022-08-02T13:39:44;0.95;;;0.90;;
11123;SDS011;5616;42.692;23.312;2022-08-02T13:42:11;1.55;;;1.10;;
11123;SDS011;5616;42.692;23.312;2022-08-02T13:44:38;0.70;;;0.70;;
11123;SDS011;5616;42.692;23.312;2022-08-02T13:47:07;1.15;;;1.05;;
11123;SDS011;5616;42.692;23.312;2022-08-02T13:49:35;2.15;;;1.30;;
11123;SDS011;5616;42.692;23.312;2022-08-02T13:52:03;1.02;;;1.00;;
11123;SDS011;5616;42.692;23.312;2022-08-02T13:54:30;1.15;;;0.95;;
11123;SDS011;5616;42.692;23.312;2022-08-02T13:56:57;1.13;;;1.02;;
11123;SDS011;5616;42.692;23.312;2022-08-02T13:59:24;1.10;;;1.00;;
11123;SDS011;5616;42.692;23.312;2022-08-02T14:01:51;1.15;;;0.90;;
11123;SDS011;5616;42.692;23.312;2022-08-02T14:04:20;3.30;;;0.90;;
11123;SDS011;5616;42.692;23.312;2022-08-02T14:06:47;1.15;;;0.90;;
11123;SDS011;5616;42.692;23.312;2022-08-02T14:09:14;0.80;;;0.80;;
11123;SDS011;5616;42.692;23.312;2022-08-02T14:11:41;1.95;;;1.02;;
11123;SDS011;5616;42.692;23.312;2022-08-02T14:14:08;1.10;;;0.93;;
11123;SDS011;5616;42.692;23.312;2022-08-02T14:16:35;2.03;;;1.10;;
11123;SDS011;5616;42.692;23.312;2022-08-02T14:19:02;1.10;;;0.93;;
11123;SDS011;5616;42.692;23.312;2022-08-02T14:21:31;1.13;;;0.80;;
11123;SDS011;5616;42.692;23.312;2022-08-02T14:23:58;1.05;;;0.90;;
11123;SDS011;5616;42.692;23.312;2022-08-02T14:26:25;0.80;;;0.80;;
11123;SDS011;5616;42.692;23.312;2022-08-02T14:28:52;3.92;;;1.10;;
11123;SDS011;5616;42.692;23.312;2022-08-02T14:31:18;1.35;;;0.80;;
11123;SDS011;5616;42.692;23.312;2022-08-02T14:33:45;0.90;;;0.90;;
11123;SDS011;5616;42.692;23.312;2022-08-02T14:36:12;1.30;;;1.00;;
11123;SDS011;5616;42.692;23.312;2022-08-02T14:38:41;1.40;;;1.00;;
11123;SDS011;5616;42.692;23.312;2022-08-02T14:41:08;0.90;;;0.90;;
11123;SDS011;5616;42.692;23.312;2022-08-02T14:43:34;1.58;;;1.00;;
11123;SDS011;5616;42.692;23.312;2022-08-02T14:46:19;0.90;;;0.90;;
11123;SDS011;5616;42.692;23.312;2022-08-02T14:48:46;1.00;;;0.90;;
11123;SDS011;5616;42.692;23.312;2022-08-02T14:51:13;1.10;;;1.00;;
11123;SDS011;5616;42.692;23.312;2022-08-02T14:53:42;1.30;;;1.20;;
11123;SDS011;5616;42.692;23.312;2022-08-02T14:56:09;1.77;;;0.93;;
11123;SDS011;5616;42.692;23.312;2022-08-02T14:58:36;1.63;;;1.15;;
11123;SDS011;5616;42.692;23.312;2022-08-02T15:01:03;1.05;;;0.95;;
11123;SDS011;5616;42.692;23.312;2022-08-02T15:03:30;1.60;;;0.90;;
11123;SDS011;5616;42.692;23.312;2022-08-02T15:05:57;1.23;;;1.00;;
11123;SDS011;5616;42.692;23.312;2022-08-02T15:08:24;1.83;;;1.15;;
11123;SDS011;5616;42.692;23.312;2022-08-02T15:10:52;1.13;;;1.02;;
11123;SDS011;5616;42.692;23.312;2022-08-02T15:13:19;1.52;;;1.20;;
11123;SDS011;5616;42.692;23.312;2022-08-02T15:15:46;1.58;;;1.23;;
11123;SDS011;5616;42.692;23.312;2022-08-02T15:18:13;2.67;;;1.10;;
11123;SDS011;5616;42.692;23.312;2022-08-02T15:20:40;2.63;;;1.30;;